Bay Sprit I I — WDE9083 — position and weather

sailwx.info

Track history (hours):
 
Tides and Currents Weather Stations Pressure Air Temp Water Temp Dewpoint Dewpoint Depression Visibility Wind Speed Wind Dir Waves Ship Positions

Bay Sprit I I

Owner: The Florida Aqurium, Brandon, FL. More information available from US FCC via Universal Licensing System and Coast Guard Vessel Documentation Center.

Last reported at 2017-Nov-17 20:49 UTC. Time now 2017-Nov-17 23:07 UTC.
Position N 27°57' W 082°27'.

Length 22 m.

Type: Passenger vessel. MMSI: 367413230.

Date/timePositionNaut miles runAvg speedWind from/ knotsBaromVisibWave heightAir tempDewpointWater temp
2017-Nov-17 20:49N 27°57' W 082°27'1 4.8
2017-Nov-17 20:30N 27°55' W 082°27'3 6.9
2017-Nov-17 20:00N 27°52' W 082°27'5 9.7
2017-Nov-17 19:30N 27°56' W 082°27'0 0.4
2017-Nov-17 18:58N 27°57' W 082°27'0 0.0
2017-Nov-17 18:28N 27°57' W 082°27'0 0.0
2017-Nov-17 17:58N 27°57' W 082°27'0 0.0
2017-Nov-17 17:28N 27°57' W 082°27'0 0.0
2017-Nov-17 16:58N 27°57' W 082°27'0 0.0
2017-Nov-17 16:28N 27°57' W 082°27'0 0.0
2017-Nov-17 15:58N 27°57' W 082°27'0 0.0
2017-Nov-17 15:28N 27°57' W 082°27'0 0.0
2017-Nov-17 15:00N 27°57' W 082°27'0 0.0
2017-Nov-17 14:30N 27°57' W 082°27'0 0.0
2017-Nov-17 14:00N 27°57' W 082°27'  
2017-Nov-11 20:47N 27°57' W 082°27'0 0.0
2017-Nov-11 20:29N 27°57' W 082°27'0 0.0
2017-Nov-11 19:59N 27°57' W 082°27'0 0.0
2017-Nov-11 19:29N 27°57' W 082°27'0 0.0
2017-Nov-11 18:59N 27°57' W 082°27'0 0.0
2017-Nov-11 18:29N 27°57' W 082°27'0 0.0
2017-Nov-11 17:59N 27°57' W 082°27'0 0.0
2017-Nov-11 17:29N 27°57' W 082°27'0 0.0
2017-Nov-11 16:59N 27°57' W 082°27'0 0.0
2017-Nov-10 20:49N 27°57' W 082°27'1 4.4
2017-Nov-10 20:30N 27°55' W 082°27'3 5.7
2017-Nov-10 19:59N 27°52' W 082°27'4 8.9
2017-Nov-10 19:30N 27°57' W 082°27'0 0.0
2017-Nov-09 20:52N 27°57' W 082°27'2 5.7
2017-Nov-09 20:30N 27°55' W 082°26'2 4.0
2017-Nov-09 20:00N 27°53' W 082°27'4 7.8
2017-Nov-09 19:29N 27°57' W 082°27'0 0.0
2017-Nov-09 18:59N 27°57' W 082°27'0 0.0
2017-Nov-09 18:29N 27°57' W 082°27'0 0.0
2017-Nov-09 17:59N 27°57' W 082°27'0 0.0
2017-Nov-09 17:29N 27°57' W 082°27'0 0.0
2017-Nov-09 16:59N 27°57' W 082°27'2 3.4
2017-Nov-09 16:30N 27°55' W 082°27'2 4.1
2017-Nov-09 16:00N 27°53' W 082°26'4 7.3
2017-Nov-09 15:30N 27°56' W 082°27'0 0.9
2017-Nov-09 15:00N 27°56' W 082°27'1 3.0
2017-Nov-09 14:30N 27°55' W 082°26'2 3.5
2017-Nov-09 13:58N 27°57' W 082°27'0 0.0
2017-Nov-09 00:32N 27°57' W 082°27'0 0.0
2017-Nov-09 00:29N 27°57' W 082°27'1 1.5
2017-Nov-09 00:00N 27°56' W 082°27'1 1.3
2017-Nov-08 23:30N 27°55' W 082°27'0 0.6
2017-Nov-08 23:00N 27°55' W 082°27'2 3.2
2017-Nov-08 22:29N 27°57' W 082°27'0 0.0
2017-Nov-08 21:59N 27°57' W 082°27'0 0.0
2017-Nov-08 21:29N 27°57' W 082°27'0 0.0
2017-Nov-08 20:59N 27°57' W 082°27'2 3.6
2017-Nov-08 20:30N 27°55' W 082°27'3 4.8
2017-Nov-08 19:59N 27°52' W 082°27'4 8.3
2017-Nov-08 19:28N 27°57' W 082°27'0 0.0
2017-Nov-08 18:58N 27°57' W 082°27'0 0.0
2017-Nov-08 18:28N 27°57' W 082°27'0 0.0
2017-Nov-08 17:58N 27°57' W 082°27'0 0.0
2017-Nov-08 17:28N 27°57' W 082°27'0 0.0
2017-Nov-08 16:58N 27°57' W 082°27'0 0.0
2017-Nov-08 16:28N 27°57' W 082°27'0 0.0
2017-Nov-08 15:58N 27°57' W 082°27'0 0.0
2017-Nov-08 15:28N 27°57' W 082°27'0 0.0
2017-Nov-08 14:58N 27°57' W 082°27'0 0.0
2017-Nov-08 14:28N 27°57' W 082°27'0 0.0
2017-Nov-08 13:58N 27°57' W 082°27'0 0.0
2017-Nov-07 22:01N 27°57' W 082°27'0 0.0
2017-Nov-07 22:00N 27°57' W 082°27'1 2.6
2017-Nov-07 21:30N 27°56' W 082°26'2 3.0
2017-Nov-07 21:00N 27°57' W 082°27'  
Track history (hours):
 
Tides and Currents Weather Stations Pressure Air Temp Water Temp Dewpoint Dewpoint Depression Visibility Wind Speed Wind Dir Waves Ship Positions

Bay Sprit I I

Owner: The Florida Aqurium, Brandon, FL. More information available from US FCC via Universal Licensing System and Coast Guard Vessel Documentation Center.

Last reported at 2017-Nov-17 20:49 UTC. Time now 2017-Nov-17 23:07 UTC.
Position N 27°57' W 082°27'.

Length 22 m.

Type: Passenger vessel. MMSI: 367413230.

Date/timePositionNaut miles runAvg speedWind from/ knotsBaromVisibWave heightAir tempDewpointWater temp
2017-Nov-17 20:49N 27°57' W 082°27'1 4.8
2017-Nov-17 20:30N 27°55' W 082°27'3 6.9
2017-Nov-17 20:00N 27°52' W 082°27'5 9.7
2017-Nov-17 19:30N 27°56' W 082°27'0 0.4
2017-Nov-17 18:58N 27°57' W 082°27'0 0.0
2017-Nov-17 18:28N 27°57' W 082°27'0 0.0
2017-Nov-17 17:58N 27°57' W 082°27'0 0.0
2017-Nov-17 17:28N 27°57' W 082°27'0 0.0
2017-Nov-17 16:58N 27°57' W 082°27'0 0.0
2017-Nov-17 16:28N 27°57' W 082°27'0 0.0
2017-Nov-17 15:58N 27°57' W 082°27'0 0.0
2017-Nov-17 15:28N 27°57' W 082°27'0 0.0
2017-Nov-17 15:00N 27°57' W 082°27'0 0.0
2017-Nov-17 14:30N 27°57' W 082°27'0 0.0
2017-Nov-17 14:00N 27°57' W 082°27'  
2017-Nov-11 20:47N 27°57' W 082°27'0 0.0
2017-Nov-11 20:29N 27°57' W 082°27'0 0.0
2017-Nov-11 19:59N 27°57' W 082°27'0 0.0
2017-Nov-11 19:29N 27°57' W 082°27'0 0.0
2017-Nov-11 18:59N 27°57' W 082°27'0 0.0
2017-Nov-11 18:29N 27°57' W 082°27'0 0.0
2017-Nov-11 17:59N 27°57' W 082°27'0 0.0
2017-Nov-11 17:29N 27°57' W 082°27'0 0.0
2017-Nov-11 16:59N 27°57' W 082°27'0 0.0
2017-Nov-10 20:49N 27°57' W 082°27'1 4.4
2017-Nov-10 20:30N 27°55' W 082°27'3 5.7
2017-Nov-10 19:59N 27°52' W 082°27'4 8.9
2017-Nov-10 19:30N 27°57' W 082°27'0 0.0
2017-Nov-09 20:52N 27°57' W 082°27'2 5.7
2017-Nov-09 20:30N 27°55' W 082°26'2 4.0
2017-Nov-09 20:00N 27°53' W 082°27'4 7.8
2017-Nov-09 19:29N 27°57' W 082°27'0 0.0
2017-Nov-09 18:59N 27°57' W 082°27'0 0.0
2017-Nov-09 18:29N 27°57' W 082°27'0 0.0
2017-Nov-09 17:59N 27°57' W 082°27'0 0.0
2017-Nov-09 17:29N 27°57' W 082°27'0 0.0
2017-Nov-09 16:59N 27°57' W 082°27'2 3.4
2017-Nov-09 16:30N 27°55' W 082°27'2 4.1
2017-Nov-09 16:00N 27°53' W 082°26'4 7.3
2017-Nov-09 15:30N 27°56' W 082°27'0 0.9
2017-Nov-09 15:00N 27°56' W 082°27'1 3.0
2017-Nov-09 14:30N 27°55' W 082°26'2 3.5
2017-Nov-09 13:58N 27°57' W 082°27'0 0.0
2017-Nov-09 00:32N 27°57' W 082°27'0 0.0
2017-Nov-09 00:29N 27°57' W 082°27'1 1.5
2017-Nov-09 00:00N 27°56' W 082°27'1 1.3
2017-Nov-08 23:30N 27°55' W 082°27'0 0.6
2017-Nov-08 23:00N 27°55' W 082°27'2 3.2
2017-Nov-08 22:29N 27°57' W 082°27'0 0.0
2017-Nov-08 21:59N 27°57' W 082°27'0 0.0
2017-Nov-08 21:29N 27°57' W 082°27'0 0.0
2017-Nov-08 20:59N 27°57' W 082°27'2 3.6
2017-Nov-08 20:30N 27°55' W 082°27'3 4.8
2017-Nov-08 19:59N 27°52' W 082°27'4 8.3
2017-Nov-08 19:28N 27°57' W 082°27'0 0.0
2017-Nov-08 18:58N 27°57' W 082°27'0 0.0
2017-Nov-08 18:28N 27°57' W 082°27'0 0.0
2017-Nov-08 17:58N 27°57' W 082°27'0 0.0
2017-Nov-08 17:28N 27°57' W 082°27'0 0.0
2017-Nov-08 16:58N 27°57' W 082°27'0 0.0
2017-Nov-08 16:28N 27°57' W 082°27'0 0.0
2017-Nov-08 15:58N 27°57' W 082°27'0 0.0
2017-Nov-08 15:28N 27°57' W 082°27'0 0.0
2017-Nov-08 14:58N 27°57' W 082°27'0 0.0
2017-Nov-08 14:28N 27°57' W 082°27'0 0.0
2017-Nov-08 13:58N 27°57' W 082°27'0 0.0
2017-Nov-07 22:01N 27°57' W 082°27'0 0.0
2017-Nov-07 22:00N 27°57' W 082°27'1 2.6
2017-Nov-07 21:30N 27°56' W 082°26'2 3.0
2017-Nov-07 21:00N 27°57' W 082°27'  

Dump ship's entire track history